createdAt,value
2023-03-22T00:00:01.870Z,100173.47
2023-03-22T00:02:33.342Z,100183.75
2023-03-22T00:05:00.541Z,100179.47
2023-03-22T00:07:28.160Z,100173.47
2023-03-22T00:09:55.507Z,100173.47
2023-03-22T00:12:22.430Z,100166.63
2023-03-22T00:14:49.679Z,100164.88
2023-03-22T00:17:16.774Z,100173.47
2023-03-22T00:19:45.242Z,100163.16
2023-03-22T00:22:14.878Z,100158.00
2023-03-22T00:24:41.910Z,100158.00
2023-03-22T00:27:08.924Z,100152.84
2023-03-22T00:29:36.049Z,100158.00
2023-03-22T00:32:04.434Z,100156.31
2023-03-22T00:34:32.910Z,100156.28
2023-03-22T00:37:00.327Z,100148.56
2023-03-22T00:39:27.393Z,100149.41
2023-03-22T00:41:54.394Z,100141.72
2023-03-22T00:44:21.498Z,100145.13
2023-03-22T00:46:48.464Z,100137.41
2023-03-22T00:49:15.530Z,100146.00
2023-03-22T00:51:42.592Z,100140.84
2023-03-22T00:54:09.726Z,100129.69
2023-03-22T00:56:37.779Z,100133.97
2023-03-22T00:59:13.969Z,100124.53
2023-03-22T01:01:43.111Z,100128.81
2023-03-22T01:04:15.469Z,100127.13
2023-03-22T01:06:42.418Z,100120.25
2023-03-22T01:09:15.003Z,100124.53
2023-03-22T01:11:44.141Z,100115.09
2023-03-22T01:14:14.121Z,100109.94
2023-03-22T01:16:41.305Z,100112.50
2023-03-22T01:19:08.963Z,100104.78
2023-03-22T01:21:35.996Z,100096.22
2023-03-22T01:24:03.454Z,100079.06
2023-03-22T01:26:30.695Z,100080.75
2023-03-22T01:28:57.842Z,100079.06
2023-03-22T01:31:25.025Z,100070.47
2023-03-22T01:33:52.168Z,100084.19
2023-03-22T01:36:21.217Z,100077.34
2023-03-22T01:38:48.273Z,100080.75
2023-03-22T01:41:17.121Z,100065.31
2023-03-22T01:43:44.815Z,100067.91
2023-03-22T01:46:12.413Z,100058.47
2023-03-22T01:48:46.120Z,100055.00
2023-03-22T01:51:18.700Z,100051.59
2023-03-22T01:54:32.078Z,100060.16
2023-03-22T01:57:03.774Z,100056.75
2023-03-22T01:59:40.207Z,100056.75
2023-03-22T02:02:19.387Z,100048.16
2023-03-22T02:04:58.272Z,100052.44
2023-03-22T02:07:28.764Z,100060.16
2023-03-22T02:09:57.015Z,100052.44
2023-03-22T02:12:40.901Z,100049.88
2023-03-22T02:15:32.669Z,100036.97
2023-03-22T02:18:39.163Z,100039.56
2023-03-22T02:21:44.993Z,100030.13
2023-03-22T02:24:30.475Z,100034.41
2023-03-22T02:27:26.648Z,100037.81
2023-03-22T02:30:28.447Z,100032.69
2023-03-22T02:33:17.574Z,100038.69
2023-03-22T02:36:11.366Z,100044.69
2023-03-22T02:39:05.707Z,100039.53
2023-03-22T02:42:00.437Z,100037.84
2023-03-22T02:45:04.125Z,100032.69
2023-03-22T02:47:55.331Z,100029.22
2023-03-22T02:50:29.872Z,100026.69
2023-03-22T02:53:29.054Z,100022.38
2023-03-22T02:56:09.848Z,100022.38
2023-03-22T02:58:50.527Z,100020.63
2023-03-22T03:01:27.456Z,100015.50
2023-03-22T03:03:59.406Z,100025.78
2023-03-22T03:06:32.504Z,100012.06
2023-03-22T03:09:02.803Z,100006.91
2023-03-22T03:11:31.538Z,100010.31
2023-03-22T03:13:59.685Z,100000.91
2023-03-22T03:16:31.072Z,100006.88
2023-03-22T03:19:11.745Z,100007.75
2023-03-22T03:21:45.554Z,100009.44
2023-03-22T03:24:23.403Z,100013.72
2023-03-22T03:27:13.532Z,100001.72
2023-03-22T03:29:50.848Z,100003.44
2023-03-22T03:32:25.783Z,100003.44
2023-03-22T03:35:07.830Z,100006.00
2023-03-22T03:37:39.925Z,100006.03
2023-03-22T03:40:13.015Z,99998.28
2023-03-22T03:42:46.739Z,99991.44
2023-03-22T03:45:15.558Z,100006.03
2023-03-22T03:47:44.844Z,99996.56
2023-03-22T03:50:15.948Z,100005.19
2023-03-22T03:52:43.399Z,100006.88
2023-03-22T03:55:10.937Z,100000.03
2023-03-22T03:57:37.947Z,99994.88
2023-03-22T04:00:06.009Z,100000.88
2023-03-22T04:03:02.649Z,99988.00
2023-03-22T04:05:50.700Z,99991.47
2023-03-22T04:08:17.842Z,99998.31
2023-03-22T04:10:50.873Z,99988.84
2023-03-22T04:13:21.762Z,99996.59
2023-03-22T04:15:53.758Z,99993.16
2023-03-22T04:18:21.432Z,99988.84
2023-03-22T04:20:49.615Z,99990.59
2023-03-22T04:23:17.270Z,99987.97
2023-03-22T04:25:50.368Z,99984.56
2023-03-22T04:28:24.182Z,99986.28
2023-03-22T04:30:52.556Z,99975.97
2023-03-22T04:33:39.596Z,99986.28
2023-03-22T04:36:36.625Z,99969.94
2023-03-22T04:39:19.300Z,99977.66
2023-03-22T04:41:55.332Z,99975.09
2023-03-22T04:44:22.915Z,99967.34
2023-03-22T04:46:51.110Z,99969.94
2023-03-22T04:49:18.334Z,99968.25
2023-03-22T04:51:45.699Z,99964.78
2023-03-22T04:54:25.956Z,99969.09
2023-03-22T04:56:53.087Z,99964.78
2023-03-22T04:59:22.632Z,99958.78
2023-03-22T05:01:51.763Z,99951.06
2023-03-22T05:04:22.689Z,99948.47
2023-03-22T05:06:55.462Z,99945.06
2023-03-22T05:09:28.350Z,99945.91
2023-03-22T05:11:56.004Z,99940.75
2023-03-22T05:14:37.636Z,99950.19
2023-03-22T05:17:06.062Z,99952.78
2023-03-22T05:19:36.636Z,99962.22
2023-03-22T05:22:03.745Z,99955.31
2023-03-22T05:24:46.407Z,99949.31
2023-03-22T05:27:31.826Z,99961.31
2023-03-22T05:30:17.797Z,99962.19
2023-03-22T05:32:59.928Z,99951.91
2023-03-22T05:35:27.721Z,99969.03
2023-03-22T05:37:57.252Z,99957.00
2023-03-22T05:40:27.645Z,99957.88
2023-03-22T05:42:55.376Z,99957.88
2023-03-22T05:45:26.282Z,99958.72
2023-03-22T05:48:16.384Z,99951.88
2023-03-22T05:50:43.617Z,99950.97
2023-03-22T05:53:11.798Z,99964.72
2023-03-22T05:56:05.470Z,99959.63
2023-03-22T05:58:34.079Z,99957.03
2023-03-22T06:01:08.560Z,99972.47
2023-03-22T06:03:48.655Z,99962.19
2023-03-22T06:06:28.264Z,99969.03
2023-03-22T06:09:16.459Z,99964.75
2023-03-22T06:11:45.768Z,99963.88
2023-03-22T06:14:14.903Z,99956.94
2023-03-22T06:17:05.313Z,99968.13
2023-03-22T06:19:32.537Z,99967.28
2023-03-22T06:22:02.610Z,99971.53
2023-03-22T06:24:31.405Z,99965.53
2023-03-22T06:26:58.498Z,99963.81
2023-03-22T06:29:25.690Z,99967.25
2023-03-22T06:31:54.873Z,99963.78
2023-03-22T06:34:21.871Z,99968.06
2023-03-22T06:36:49.049Z,99974.09
2023-03-22T06:39:23.937Z,99971.50
2023-03-22T06:41:51.388Z,99967.19
2023-03-22T06:44:18.777Z,99970.63
2023-03-22T06:46:52.199Z,99972.38
2023-03-22T06:49:37.214Z,99978.34
2023-03-22T06:52:04.530Z,99965.44
2023-03-22T06:54:32.465Z,99967.16
2023-03-22T06:56:59.539Z,99968.88
2023-03-22T06:59:26.858Z,99971.44
2023-03-22T07:01:53.898Z,99970.53
2023-03-22T07:04:21.346Z,99966.28
2023-03-22T07:06:50.105Z,99972.28
2023-03-22T07:09:17.866Z,99976.56
2023-03-22T07:11:47.249Z,99972.25
2023-03-22T07:14:18.187Z,99973.09
2023-03-22T07:17:08.516Z,99976.50
2023-03-22T07:19:35.766Z,99982.50
2023-03-22T07:22:07.136Z,99972.19
2023-03-22T07:24:38.655Z,99973.00
2023-03-22T07:27:09.439Z,99961.81
2023-03-22T07:29:36.598Z,99963.50
2023-03-22T07:32:03.696Z,99963.50
2023-03-22T07:34:44.167Z,99965.22
2023-03-22T07:37:16.532Z,99976.38
2023-03-22T07:39:43.827Z,99969.53
2023-03-22T07:42:10.903Z,99961.78
2023-03-22T07:45:07.513Z,99972.06
2023-03-22T07:47:43.371Z,99975.44
2023-03-22T07:50:33.419Z,99960.81
2023-03-22T07:53:04.482Z,99965.06
2023-03-22T07:55:31.875Z,99959.09
2023-03-22T07:57:59.080Z,99960.78
2023-03-22T08:00:26.360Z,99967.63
2023-03-22T08:03:16.232Z,99956.47
2023-03-22T08:06:04.481Z,99965.00
2023-03-22T08:08:31.552Z,99951.22
2023-03-22T08:10:59.152Z,99964.06
2023-03-22T08:13:26.982Z,99961.41
2023-03-22T08:15:54.385Z,99963.06
2023-03-22T08:18:21.879Z,99964.81
2023-03-22T08:20:56.906Z,99967.34
2023-03-22T08:23:40.384Z,99975.09
2023-03-22T08:26:27.521Z,99964.84
2023-03-22T08:28:57.414Z,99973.41
2023-03-22T08:31:24.496Z,99969.97
2023-03-22T08:33:51.626Z,99968.22
2023-03-22T08:36:21.793Z,99968.22
2023-03-22T08:38:58.845Z,99964.78
2023-03-22T08:41:38.793Z,99961.28
2023-03-22T08:44:06.624Z,99965.47
2023-03-22T08:46:35.416Z,99966.31
2023-03-22T08:49:03.544Z,99961.94
2023-03-22T08:51:41.688Z,99967.03
2023-03-22T08:54:36.680Z,99959.19
2023-03-22T08:57:04.388Z,99945.47
2023-03-22T08:59:52.576Z,99962.56
2023-03-22T09:02:36.410Z,99953.09
2023-03-22T09:05:04.090Z,99961.50
2023-03-22T09:07:31.913Z,99954.50
2023-03-22T09:10:06.581Z,99951.78
2023-03-22T09:12:37.350Z,99946.59
2023-03-22T09:15:06.392Z,99942.28
2023-03-22T09:17:34.719Z,99940.59
2023-03-22T09:20:12.549Z,99939.78
2023-03-22T09:22:42.755Z,99934.53
2023-03-22T09:25:12.988Z,99938.69
2023-03-22T09:27:43.040Z,99936.72
2023-03-22T09:30:11.377Z,99943.34
2023-03-22T09:32:40.876Z,99936.31
2023-03-22T09:35:10.162Z,99935.47
2023-03-22T09:37:49.622Z,99935.47
2023-03-22T09:40:17.839Z,99938.84
2023-03-22T09:42:55.293Z,99936.31
2023-03-22T09:45:32.366Z,99932.75
2023-03-22T09:48:00.292Z,99937.00
2023-03-22T09:50:31.372Z,99919.72
2023-03-22T09:52:59.489Z,99891.31
2023-03-22T09:55:37.784Z,99924.66
2023-03-22T09:58:13.703Z,99914.22
2023-03-22T10:00:46.160Z,99914.13
2023-03-22T10:03:34.710Z,99919.03
2023-03-22T10:06:18.492Z,99902.31
2023-03-22T10:08:54.500Z,99903.63
2023-03-22T10:11:26.216Z,99892.91
2023-03-22T10:13:57.777Z,99905.50
2023-03-22T10:16:29.780Z,99898.53
2023-03-22T10:19:21.736Z,99910.50
2023-03-22T10:21:52.129Z,99901.84
2023-03-22T10:24:22.996Z,99896.72
2023-03-22T10:26:51.509Z,99893.31
2023-03-22T10:29:27.568Z,99895.03
2023-03-22T10:31:55.158Z,99894.19
2023-03-22T10:34:28.193Z,99886.34
2023-03-22T10:36:55.977Z,99893.19
2023-03-22T10:39:38.562Z,99882.81
2023-03-22T10:42:16.157Z,99886.97
2023-03-22T10:44:58.074Z,99894.66
2023-03-22T10:47:35.634Z,99892.06
2023-03-22T10:50:07.441Z,99896.31
2023-03-22T10:52:51.601Z,99884.19
2023-03-22T10:55:18.847Z,99891.72
2023-03-22T10:57:57.010Z,99887.22
2023-03-22T11:00:25.667Z,99887.22
2023-03-22T11:02:58.734Z,99882.03
2023-03-22T11:05:30.297Z,99880.34
2023-03-22T11:07:59.041Z,99867.44
2023-03-22T11:10:34.848Z,99878.53
2023-03-22T11:13:08.002Z,99878.50
2023-03-22T11:15:54.717Z,99878.50
2023-03-22T11:18:22.399Z,99885.22
2023-03-22T11:20:57.335Z,99873.16
2023-03-22T11:23:25.630Z,99881.69
2023-03-22T11:25:56.689Z,99872.31
2023-03-22T11:28:34.376Z,99883.34
2023-03-22T11:31:08.666Z,99857.41
2023-03-22T11:33:37.069Z,99863.44
2023-03-22T11:36:16.408Z,99863.44
2023-03-22T11:38:45.578Z,99851.31
2023-03-22T11:41:22.972Z,99862.44
2023-03-22T11:44:01.957Z,99859.81
2023-03-22T11:46:30.556Z,99852.72
2023-03-22T11:49:02.053Z,99855.28
2023-03-22T11:51:33.679Z,99858.66
2023-03-22T11:54:03.774Z,99864.66
2023-03-22T11:56:31.273Z,99861.91
2023-03-22T11:59:00.269Z,99860.03
2023-03-22T12:01:43.500Z,99849.66
2023-03-22T12:04:17.812Z,99848.72
2023-03-22T12:06:45.203Z,99841.84
2023-03-22T12:09:30.534Z,99833.84
2023-03-22T12:12:01.128Z,99826.00
2023-03-22T12:14:39.698Z,99843.91
2023-03-22T12:17:14.658Z,99835.19
2023-03-22T12:20:09.316Z,99842.88
2023-03-22T12:22:41.996Z,99843.63
2023-03-22T12:25:17.888Z,99847.00
2023-03-22T12:27:48.691Z,99846.13
2023-03-22T12:30:21.221Z,99852.19
2023-03-22T12:32:59.690Z,99855.69
2023-03-22T12:35:31.672Z,99850.59
2023-03-22T12:38:01.862Z,99840.19
2023-03-22T12:40:34.881Z,99837.59
2023-03-22T12:43:01.883Z,99844.28
2023-03-22T12:45:32.020Z,99841.72
2023-03-22T12:48:07.246Z,99838.47
2023-03-22T12:50:46.167Z,99841.78
2023-03-22T12:53:19.274Z,99834.91
2023-03-22T12:55:48.460Z,99832.41
2023-03-22T12:58:23.988Z,99834.25
2023-03-22T13:00:58.959Z,99828.25
2023-03-22T13:03:29.072Z,99833.47
2023-03-22T13:06:03.733Z,99830.88
2023-03-22T13:09:09.339Z,99820.72
2023-03-22T13:11:36.731Z,99824.13
2023-03-22T13:14:03.892Z,99826.72
2023-03-22T13:17:07.003Z,99818.00
2023-03-22T13:19:37.714Z,99811.88
2023-03-22T13:22:28.556Z,99808.34
2023-03-22T13:25:29.306Z,99810.91
2023-03-22T13:28:03.661Z,99798.72
2023-03-22T13:30:35.647Z,99793.53
2023-03-22T13:33:08.810Z,99786.53
2023-03-22T13:35:57.998Z,99777.84
2023-03-22T13:38:38.763Z,99772.66
2023-03-22T13:41:20.839Z,99774.44
2023-03-22T13:44:26.517Z,99766.56
2023-03-22T13:46:58.406Z,99747.00
2023-03-22T13:49:31.434Z,99761.50
2023-03-22T13:52:02.262Z,99753.91
2023-03-22T13:54:43.207Z,99753.00
2023-03-22T13:57:37.900Z,99758.94
2023-03-22T14:00:32.867Z,99751.88
2023-03-22T14:03:18.350Z,99739.84
2023-03-22T14:05:47.507Z,99743.16
2023-03-22T14:08:28.617Z,99751.97
2023-03-22T14:11:02.288Z,99745.06
2023-03-22T14:13:35.195Z,99742.44
2023-03-22T14:16:15.770Z,99738.16
2023-03-22T14:18:44.456Z,99730.44
2023-03-22T14:21:19.185Z,99732.97
